Главная страница
METAR-TAF:

METAR-TAF

Аэропорты :

Йёнчёпинг, Швеция

широта: 57-46N, долгота: 014-05E, высота над уровнем моря: 226 м

Текущие метеонаблюдения

Эта сводка был подготовлена 22 минут назад, в 14:50 UTC
Ветер 5 Узел от восточно-северо-восточный
Температура 13°C
Влажность 100%
Давление 1007 hPa
Видимость: 2000 м
сильный дождь,

METAR: ESGJ 221450Z AUTO 07005KT 2000 +RA ///026/// 13/13 Q1007 RESHRA

Время: 17:12 (15:12 UTC)

Прогноз

Эта сводка был подготовлена 24 часа и 42 минут назад, в 14:30 UTC
Прогноз действительный с 21-го 15 UTC до 21-го 18 UTC
Ветер 4 Узел от восточный
Видимость 10 км и более
Нет облачности ниже 1500 м, и нет кучево-дождевой облачности

TAF: ESGJ 211430Z 2115/2118 08004KT CAVOK

Метеонаблюдения и прогнозы для более 4000 аэропортов (сводки METAR и TAF).

Имеющиеся станции представлены на карте желтыми и красными точками.

Чтобы увидеть название станции, наведите на нее мышь.

Затем щелкните, чтобы увидеть метеонаблюдения и метеопрогнозы.

Управление картой: чтобы увеличить масштаб, щелкните зеленые кнопки с черным крестиком; чтобы уменьшить масштаб, щелкните зеленую кнопку с тире; для просмотра соседних карт щелкайте зеленые стрелки.


METAR-TAF: